createdAt,value
2023-04-09T00:00:22.804Z,0.00
2023-04-09T00:01:22.725Z,0.00
2023-04-09T00:02:22.775Z,0.00
2023-04-09T00:03:22.812Z,0.00
2023-04-09T00:04:23.281Z,0.00
2023-04-09T00:05:22.385Z,0.00
2023-04-09T00:06:22.306Z,0.00
2023-04-09T00:07:22.234Z,0.00
2023-04-09T00:08:22.134Z,0.00
2023-04-09T00:09:22.149Z,0.00
2023-04-09T00:10:21.962Z,0.00
2023-04-09T00:11:21.921Z,0.00
2023-04-09T00:12:21.814Z,0.00
2023-04-09T00:13:31.892Z,0.00
2023-04-09T00:14:21.634Z,0.00
2023-04-09T00:15:30.637Z,0.00
2023-04-09T00:16:21.475Z,0.00
2023-04-09T00:17:21.414Z,0.00
2023-04-09T00:18:21.294Z,0.00
2023-04-09T00:19:21.474Z,0.00
2023-04-09T00:20:21.124Z,0.00
2023-04-09T00:21:21.040Z,0.00
2023-04-09T00:22:20.958Z,0.00
2023-04-09T00:23:20.877Z,0.00
2023-04-09T00:24:20.790Z,0.00
2023-04-09T00:25:20.705Z,0.00
2023-04-09T00:26:20.620Z,0.00
2023-04-09T00:27:20.686Z,0.00
2023-04-09T00:28:20.476Z,0.00
2023-04-09T00:29:20.368Z,0.00
2023-04-09T00:30:20.292Z,0.00
2023-04-09T00:31:21.032Z,0.00
2023-04-09T00:32:20.170Z,0.00
2023-04-09T00:33:20.335Z,0.00
2023-04-09T00:34:19.950Z,0.00
2023-04-09T00:35:19.862Z,0.00
2023-04-09T00:36:19.785Z,0.00
2023-04-09T00:37:19.692Z,0.00
2023-04-09T00:38:19.607Z,0.00
2023-04-09T00:40:22.064Z,0.00
2023-04-09T00:41:19.357Z,0.00
2023-04-09T00:42:19.267Z,0.00
2023-04-09T00:43:19.206Z,0.00
2023-04-09T00:44:19.186Z,0.00
2023-04-09T00:45:19.025Z,0.00
2023-04-09T00:46:18.993Z,0.00
2023-04-09T00:47:18.853Z,0.00
2023-04-09T00:48:18.759Z,0.00
2023-04-09T00:49:18.875Z,0.00
2023-04-09T00:50:18.648Z,0.00
2023-04-09T00:59:31.952Z,0.00
2023-04-09T01:00:31.880Z,0.00
2023-04-09T01:01:32.891Z,0.00
2023-04-09T01:08:31.159Z,0.00
2023-04-09T01:09:31.108Z,0.00
2023-04-09T01:10:31.023Z,0.00
2023-04-09T01:12:30.816Z,0.00
2023-04-09T01:13:30.745Z,0.00
2023-04-09T01:14:30.645Z,0.00
2023-04-09T01:15:30.671Z,0.00
2023-04-09T01:16:30.498Z,0.00
2023-04-09T01:17:30.446Z,0.00
2023-04-09T01:18:30.302Z,0.00
2023-04-09T01:19:30.215Z,0.00
2023-04-09T01:20:30.334Z,0.00
2023-04-09T01:21:30.077Z,0.00
2023-04-09T01:22:29.960Z,0.00
2023-04-09T01:23:29.875Z,0.00
2023-04-09T01:24:29.786Z,0.00
2023-04-09T01:25:29.700Z,0.00
2023-04-09T01:26:29.629Z,0.00
2023-04-09T01:27:29.529Z,0.00
2023-04-09T01:28:29.449Z,0.00
2023-04-09T01:29:29.357Z,0.00
2023-04-09T01:30:29.336Z,0.00
2023-04-09T01:31:29.221Z,0.00
2023-04-09T01:32:29.134Z,0.00
2023-04-09T01:34:29.171Z,0.00
2023-04-09T01:35:28.885Z,0.00
2023-04-09T02:08:27.257Z,0.00
2023-04-09T02:13:31.469Z,0.00
2023-04-09T02:14:31.387Z,0.00
2023-04-09T02:15:31.319Z,0.00
2023-04-09T02:16:31.412Z,0.00
2023-04-09T02:17:31.159Z,0.00
2023-04-09T02:18:31.036Z,0.00
2023-04-09T02:19:30.971Z,0.00
2023-04-09T02:20:31.084Z,0.00
2023-04-09T02:21:30.875Z,0.00
2023-04-09T02:22:30.689Z,0.00
2023-04-09T02:23:30.604Z,0.00
2023-04-09T02:24:30.530Z,0.00
2023-04-09T02:25:30.466Z,0.00
2023-04-09T02:26:30.543Z,0.00
2023-04-09T02:27:30.271Z,0.00
2023-04-09T02:28:30.169Z,0.00
2023-04-09T02:29:30.083Z,0.00
2023-04-09T02:30:30.003Z,0.00
2023-04-09T02:31:30.007Z,0.00
2023-04-09T02:32:29.860Z,0.00
2023-04-09T02:33:29.743Z,0.00
2023-04-09T02:34:29.651Z,0.00
2023-04-09T02:35:29.563Z,0.00
2023-04-09T02:36:29.764Z,0.00
2023-04-09T02:37:29.393Z,0.00
2023-04-09T02:38:29.312Z,0.00
2023-04-09T02:39:29.224Z,0.00
2023-04-09T02:40:29.134Z,0.00
2023-04-09T02:41:29.048Z,0.00
2023-04-09T02:42:28.978Z,0.00
2023-04-09T02:43:28.870Z,0.00
2023-04-09T02:44:28.782Z,0.00
2023-04-09T02:45:28.698Z,0.00
2023-04-09T02:46:28.898Z,0.00
2023-04-09T02:47:28.571Z,0.00
2023-04-09T02:48:28.436Z,0.00
2023-04-09T02:49:28.554Z,0.00
2023-04-09T02:50:29.468Z,0.00
2023-04-09T02:51:28.382Z,0.00
2023-04-09T02:52:28.114Z,0.00
2023-04-09T02:53:28.214Z,0.00
2023-04-09T02:54:28.120Z,0.00
2023-04-09T02:55:27.838Z,0.00
2023-04-09T02:56:27.763Z,0.00
2023-04-09T02:57:27.860Z,0.00
2023-04-09T02:58:27.572Z,0.00
2023-04-09T02:59:27.932Z,0.00
2023-04-09T03:00:27.396Z,0.00
2023-04-09T03:01:27.335Z,0.00
2023-04-09T03:02:27.454Z,0.00
2023-04-09T03:03:27.196Z,0.00
2023-04-09T03:04:27.129Z,0.00
2023-04-09T03:05:26.969Z,0.00
2023-04-09T03:06:26.880Z,0.00
2023-04-09T03:07:26.793Z,0.00
2023-04-09T03:08:26.736Z,0.00
2023-04-09T03:09:26.618Z,0.00
2023-04-09T03:10:26.639Z,0.00
2023-04-09T03:11:26.693Z,0.00
2023-04-09T03:12:26.354Z,0.00
2023-04-09T03:13:26.269Z,0.00
2023-04-09T03:14:26.185Z,0.00
2023-04-09T03:15:26.100Z,0.00
2023-04-09T03:16:26.301Z,0.00
2023-04-09T03:17:25.935Z,0.00
2023-04-09T03:18:25.838Z,0.00
2023-04-09T03:19:25.750Z,0.00
2023-04-09T03:20:25.663Z,0.00
2023-04-09T03:21:25.574Z,0.00
2023-04-09T03:22:25.538Z,0.00
2023-04-09T03:23:25.411Z,0.00
2023-04-09T03:24:25.338Z,0.00
2023-04-09T03:25:25.258Z,0.00
2023-04-09T03:26:25.396Z,0.00
2023-04-09T03:27:25.058Z,0.00
2023-04-09T03:28:24.970Z,0.00
2023-04-09T03:29:24.885Z,0.00
2023-04-09T03:30:24.997Z,0.00
2023-04-09T03:31:24.740Z,0.00
2023-04-09T03:32:24.669Z,0.00
2023-04-09T03:33:24.602Z,0.00
2023-04-09T03:34:24.451Z,0.00
2023-04-09T03:35:24.402Z,0.00
2023-04-09T03:36:24.273Z,0.00
2023-04-09T03:37:24.188Z,0.00
2023-04-09T03:38:24.109Z,0.00
2023-04-09T03:39:24.019Z,0.00
2023-04-09T03:40:23.974Z,0.00
2023-04-09T03:41:23.867Z,0.00
2023-04-09T03:42:23.860Z,0.00
2023-04-09T03:43:23.672Z,0.00
2023-04-09T03:44:23.781Z,0.00
2023-04-09T03:45:23.537Z,0.00
2023-04-09T03:46:23.428Z,0.00
2023-04-09T03:47:23.389Z,0.00
2023-04-09T03:48:23.273Z,0.00
2023-04-09T03:49:23.404Z,0.00
2023-04-09T03:50:23.059Z,0.00
2023-04-09T03:51:23.319Z,0.00
2023-04-09T03:53:23.002Z,0.00
2023-04-09T03:54:22.713Z,0.00
2023-04-09T03:55:22.831Z,0.00
2023-04-09T03:56:22.922Z,0.00
2023-04-09T03:57:22.450Z,0.00
2023-04-09T03:58:22.398Z,0.00
2023-04-09T03:59:22.316Z,0.00
2023-04-09T04:00:22.394Z,0.00
2023-04-09T04:01:22.142Z,0.00
2023-04-09T04:02:22.103Z,0.00
2023-04-09T04:03:22.123Z,0.00
2023-04-09T04:04:23.781Z,0.00
2023-04-09T04:05:21.753Z,0.00
2023-04-09T04:06:21.705Z,0.00
2023-04-09T04:07:21.616Z,0.00
2023-04-09T04:08:21.496Z,0.00
2023-04-09T04:09:21.442Z,0.00
2023-04-09T04:11:21.236Z,0.00
2023-04-09T04:12:21.166Z,0.00
2023-04-09T04:13:21.133Z,0.00
2023-04-09T04:14:21.073Z,0.00
2023-04-09T04:15:20.883Z,0.00
2023-04-09T04:16:20.885Z,0.00
2023-04-09T04:17:20.762Z,0.00
2023-04-09T04:18:20.630Z,0.00
2023-04-09T04:19:20.536Z,0.00
2023-04-09T04:20:20.458Z,0.00
2023-04-09T04:21:20.362Z,0.00
2023-04-09T04:22:20.277Z,0.00
2023-04-09T04:23:20.191Z,0.00
2023-04-09T04:24:20.100Z,0.00
2023-04-09T04:25:20.017Z,0.00
2023-04-09T04:26:19.944Z,0.00
2023-04-09T04:27:19.847Z,0.00
2023-04-09T04:28:19.787Z,0.00
2023-04-09T04:29:19.672Z,0.00
2023-04-09T04:30:19.580Z,0.00
2023-04-09T04:31:19.508Z,0.00
2023-04-09T04:32:19.416Z,0.00
2023-04-09T04:33:19.322Z,0.00
2023-04-09T04:34:19.234Z,0.00
2023-04-09T04:35:19.231Z,0.00
2023-04-09T04:36:19.077Z,0.00
2023-04-09T04:37:18.986Z,0.00
2023-04-09T04:38:18.891Z,0.00
2023-04-09T04:39:18.807Z,0.00
2023-04-09T04:40:18.720Z,0.00
2023-04-09T04:41:18.821Z,0.00
2023-04-09T04:42:18.543Z,0.00
2023-04-09T04:43:18.456Z,0.00
2023-04-09T04:44:18.402Z,0.00
2023-04-09T04:45:18.583Z,5.63
2023-04-09T04:46:18.260Z,5.63
2023-04-09T04:47:18.316Z,5.63
2023-04-09T04:48:18.026Z,5.63
2023-04-09T04:49:17.944Z,5.63
2023-04-09T04:50:17.868Z,5.63
2023-04-09T04:51:17.766Z,5.63
2023-04-09T04:52:17.921Z,5.63
2023-04-09T04:53:17.603Z,5.63
2023-04-09T04:54:17.507Z,5.63
2023-04-09T04:55:17.422Z,11.25
2023-04-09T04:56:17.345Z,11.25
2023-04-09T04:57:17.249Z,11.25
2023-04-09T04:58:17.161Z,11.25
2023-04-09T04:59:17.079Z,11.25
2023-04-09T05:00:17.009Z,11.25
2023-04-09T05:01:16.950Z,11.25
2023-04-09T05:02:16.998Z,11.25
2023-04-09T05:03:17.027Z,16.88
2023-04-09T05:04:16.643Z,16.88
2023-04-09T05:05:16.560Z,16.88
2023-04-09T05:06:16.473Z,16.88
2023-04-09T05:07:16.387Z,16.88
2023-04-09T05:08:16.706Z,16.88
2023-04-09T05:09:16.225Z,16.88
2023-04-09T05:10:16.136Z,22.50
2023-04-09T05:11:16.043Z,22.50
2023-04-09T05:12:15.958Z,22.50
2023-04-09T05:13:15.884Z,22.50
2023-04-09T05:14:15.787Z,22.50
2023-04-09T05:15:15.701Z,28.13
2023-04-09T05:16:15.643Z,28.13
2023-04-09T05:17:15.540Z,28.13
2023-04-09T05:18:15.442Z,28.13
2023-04-09T05:19:15.359Z,28.13
2023-04-09T05:20:15.270Z,33.75
2023-04-09T05:21:15.640Z,33.75
2023-04-09T05:22:15.098Z,33.75
2023-04-09T05:23:15.030Z,33.75
2023-04-09T05:24:14.933Z,33.75
2023-04-09T05:25:14.850Z,39.38
2023-04-09T05:26:14.915Z,39.38
2023-04-09T05:27:15.032Z,39.38
2023-04-09T05:28:14.588Z,39.38
2023-04-09T05:29:14.508Z,39.38
2023-04-09T05:30:14.418Z,45.00
2023-04-09T05:31:14.380Z,45.00
2023-04-09T05:32:14.348Z,45.00
2023-04-09T05:33:14.165Z,45.00
2023-04-09T05:34:14.074Z,50.63
2023-04-09T05:35:13.999Z,50.63
2023-04-09T05:36:13.915Z,50.63
2023-04-09T05:37:13.825Z,56.25
2023-04-09T05:38:13.752Z,56.25
2023-04-09T05:39:13.652Z,56.25
2023-04-09T05:40:13.567Z,61.88
2023-04-09T05:41:13.485Z,61.88
2023-04-09T05:42:13.411Z,61.88
2023-04-09T05:43:13.332Z,61.88
2023-04-09T05:44:13.228Z,67.50
2023-04-09T05:45:13.150Z,67.50
2023-04-09T05:46:13.229Z,67.50
2023-04-09T05:47:12.977Z,67.50
2023-04-09T05:48:12.908Z,73.13
2023-04-09T05:49:12.803Z,73.13
2023-04-09T05:50:12.728Z,73.13
2023-04-09T05:51:12.634Z,73.13
2023-04-09T05:52:12.550Z,73.13
2023-04-09T05:53:12.517Z,73.13
2023-04-09T05:54:12.382Z,73.13
2023-04-09T05:55:12.296Z,78.75
2023-04-09T05:56:12.235Z,78.75
2023-04-09T05:57:12.144Z,78.75
2023-04-09T05:58:12.041Z,84.38
2023-04-09T05:59:11.956Z,84.38
2023-04-09T06:00:11.869Z,90.00
2023-04-09T06:01:11.787Z,90.00
2023-04-09T06:02:11.797Z,90.00
2023-04-09T06:03:11.720Z,90.00
2023-04-09T06:04:11.889Z,90.00
2023-04-09T06:05:11.451Z,95.63
2023-04-09T06:06:11.362Z,95.63
2023-04-09T06:07:11.285Z,95.63
2023-04-09T06:08:11.214Z,101.25
2023-04-09T06:09:11.365Z,101.25
2023-04-09T06:10:11.025Z,101.25
2023-04-09T06:11:10.942Z,106.88
2023-04-09T06:12:10.855Z,106.88
2023-04-09T06:13:10.781Z,106.88
2023-04-09T06:14:10.689Z,112.50
2023-04-09T06:15:10.605Z,112.50
2023-04-09T06:16:10.600Z,112.50
2023-04-09T06:17:10.434Z,118.13
2023-04-09T06:18:10.354Z,118.13
2023-04-09T06:19:10.266Z,118.13
2023-04-09T06:20:10.453Z,123.75
2023-04-09T06:21:10.097Z,123.75
2023-04-09T06:22:10.015Z,123.75
2023-04-09T06:23:09.958Z,129.38
2023-04-09T06:24:09.851Z,135.00
2023-04-09T06:25:09.793Z,129.38
2023-04-09T06:26:09.829Z,129.38
2023-04-09T06:27:09.592Z,135.00
2023-04-09T06:28:09.515Z,135.00
2023-04-09T06:29:09.424Z,135.00
2023-04-09T06:30:09.345Z,135.00
2023-04-09T06:31:09.301Z,140.63
2023-04-09T06:32:09.176Z,140.63
2023-04-09T06:33:09.136Z,146.25
2023-04-09T06:34:09.006Z,146.25
2023-04-09T06:35:10.907Z,146.25
2023-04-09T06:36:08.880Z,151.88
2023-04-09T06:37:08.795Z,151.88
2023-04-09T06:38:08.670Z,151.88
2023-04-09T06:39:08.590Z,157.50
2023-04-09T06:40:08.505Z,157.50
2023-04-09T06:41:08.501Z,163.13
2023-04-09T06:42:08.338Z,163.13
2023-04-09T06:43:08.251Z,168.75
2023-04-09T06:44:08.176Z,174.38
2023-04-09T06:45:08.105Z,174.38
2023-04-09T06:46:08.078Z,174.38
2023-04-09T06:47:07.920Z,168.75
2023-04-09T06:48:07.862Z,174.38
2023-04-09T06:49:07.754Z,174.38
2023-04-09T06:50:07.682Z,180.00
2023-04-09T06:51:07.602Z,180.00
2023-04-09T06:52:07.525Z,185.63
2023-04-09T06:53:07.422Z,185.63
2023-04-09T06:54:07.338Z,191.25
2023-04-09T06:55:07.277Z,191.25
2023-04-09T06:56:07.189Z,191.25
2023-04-09T06:57:07.099Z,191.25
2023-04-09T06:58:07.009Z,196.88
2023-04-09T06:59:06.928Z,196.88
2023-04-09T07:00:06.838Z,202.50
2023-04-09T07:01:06.755Z,202.50
2023-04-09T07:02:06.810Z,202.50
2023-04-09T07:03:06.683Z,202.50
2023-04-09T07:04:06.556Z,202.50
2023-04-09T07:05:06.451Z,208.13
2023-04-09T07:06:06.347Z,208.13
2023-04-09T07:07:06.300Z,208.13
2023-04-09T07:08:06.198Z,208.13
2023-04-09T07:09:06.094Z,208.13
2023-04-09T07:10:06.495Z,208.13
2023-04-09T07:11:05.930Z,208.13
2023-04-09T07:12:05.851Z,213.75
2023-04-09T07:13:05.773Z,219.38
2023-04-09T07:14:05.722Z,219.38
2023-04-09T07:15:05.619Z,219.38
2023-04-09T07:16:05.562Z,225.00
2023-04-09T07:17:05.447Z,225.00
2023-04-09T07:18:05.401Z,225.00
2023-04-09T07:19:05.273Z,230.63
2023-04-09T07:20:05.185Z,236.25
2023-04-09T07:21:05.107Z,241.88
2023-04-09T07:22:05.025Z,236.25
2023-04-09T07:23:04.940Z,236.25
2023-04-09T07:24:04.885Z,241.88
2023-04-09T07:25:04.773Z,247.50
2023-04-09T07:26:04.904Z,253.13
2023-04-09T07:27:04.811Z,258.75
2023-04-09T07:28:04.777Z,258.75
2023-04-09T07:29:04.451Z,264.38
2023-04-09T07:30:04.417Z,258.75
2023-04-09T07:31:04.303Z,258.75
2023-04-09T07:32:04.207Z,275.63
2023-04-09T07:33:04.167Z,281.25
2023-04-09T07:34:04.098Z,286.88
2023-04-09T07:35:04.254Z,298.13
2023-04-09T07:36:03.941Z,286.88
2023-04-09T07:37:03.832Z,286.88
2023-04-09T07:38:03.873Z,298.13
2023-04-09T07:39:03.633Z,298.13
2023-04-09T07:40:03.569Z,292.50
2023-04-09T07:41:03.468Z,281.25
2023-04-09T07:42:03.391Z,258.75
2023-04-09T07:43:03.301Z,247.50
2023-04-09T07:44:03.225Z,236.25
2023-04-09T07:45:03.149Z,230.63
2023-04-09T07:46:03.061Z,219.38
2023-04-09T07:47:03.187Z,202.50
2023-04-09T07:48:02.923Z,202.50
2023-04-09T07:49:02.824Z,202.50
2023-04-09T07:50:55.721Z,202.50
2023-04-09T07:51:55.638Z,196.88
2023-04-09T07:52:55.560Z,196.88
2023-04-09T07:53:55.475Z,196.88
2023-04-09T07:54:55.405Z,191.25
2023-04-09T07:55:55.335Z,196.88
2023-04-09T07:56:55.234Z,196.88
2023-04-09T07:57:55.154Z,202.50
2023-04-09T08:00:07.576Z,208.13
2023-04-09T08:01:07.541Z,225.00
2023-04-09T08:02:07.506Z,230.63
2023-04-09T08:05:32.959Z,270.00
2023-04-09T08:07:55.410Z,275.63
2023-04-09T08:08:55.492Z,275.63
2023-04-09T08:09:55.210Z,281.25
2023-04-09T08:10:55.128Z,275.63
2023-04-09T08:11:55.082Z,281.25
2023-04-09T08:12:54.966Z,281.25
2023-04-09T08:13:55.093Z,281.25
2023-04-09T08:14:55.103Z,275.63
2023-04-09T08:15:54.733Z,275.63
2023-04-09T08:16:54.677Z,275.63
2023-04-09T08:17:54.859Z,286.88
2023-04-09T08:18:54.980Z,286.88
2023-04-09T08:19:54.403Z,298.13
2023-04-09T08:20:54.328Z,309.38
2023-04-09T08:21:54.242Z,298.13
2023-04-09T08:22:54.163Z,286.88
2023-04-09T08:23:54.074Z,275.63
2023-04-09T08:24:54.044Z,264.38
2023-04-09T08:25:53.923Z,264.38
2023-04-09T08:26:53.838Z,270.00
2023-04-09T08:27:53.782Z,281.25
2023-04-09T08:28:54.015Z,281.25
2023-04-09T08:29:53.589Z,286.88
2023-04-09T08:30:53.521Z,286.88
2023-04-09T08:31:53.443Z,286.88
2023-04-09T08:32:53.384Z,298.13
2023-04-09T08:33:53.265Z,309.38
2023-04-09T08:34:53.181Z,315.00
2023-04-09T08:35:53.102Z,320.63
2023-04-09T08:36:53.039Z,337.50
2023-04-09T08:37:52.938Z,348.75
2023-04-09T08:38:53.200Z,360.00
2023-04-09T08:43:20.921Z,365.63
2023-04-09T08:44:20.815Z,360.00
2023-04-09T08:45:20.739Z,365.63
2023-04-09T08:46:20.709Z,376.88
2023-04-09T08:47:20.666Z,382.50
2023-04-09T08:48:20.560Z,388.13
2023-04-09T08:49:20.417Z,405.00
2023-04-09T08:50:20.404Z,410.63
2023-04-09T08:51:20.260Z,427.50
2023-04-09T08:52:20.176Z,450.00
2023-04-09T08:53:20.096Z,478.13
2023-04-09T08:54:20.025Z,478.13
2023-04-09T08:55:19.933Z,461.25
2023-04-09T08:56:19.865Z,450.00
2023-04-09T08:57:19.774Z,455.63
2023-04-09T08:58:19.692Z,438.75
2023-04-09T08:59:19.647Z,433.13
2023-04-09T09:00:19.537Z,433.13
2023-04-09T09:01:19.500Z,410.63
2023-04-09T09:02:19.760Z,399.38
2023-04-09T09:03:19.339Z,388.13
2023-04-09T09:04:19.246Z,371.25
2023-04-09T09:05:19.139Z,354.38
2023-04-09T09:06:19.053Z,337.50
2023-04-09T09:07:18.976Z,326.25
2023-04-09T09:08:18.893Z,309.38
2023-04-09T09:09:18.867Z,286.88
2023-04-09T09:10:18.735Z,270.00
2023-04-09T09:11:18.656Z,258.75
2023-04-09T09:12:18.575Z,253.13
2023-04-09T09:13:18.499Z,247.50
2023-04-09T09:14:18.623Z,258.75
2023-04-09T09:15:18.411Z,275.63
2023-04-09T09:16:18.661Z,292.50
2023-04-09T09:17:18.218Z,309.38
2023-04-09T09:18:18.100Z,303.75
2023-04-09T09:19:18.020Z,298.13
2023-04-09T09:20:17.940Z,309.38
2023-04-09T09:21:17.861Z,298.13
2023-04-09T09:22:17.785Z,292.50
2023-04-09T09:23:17.704Z,258.75
2023-04-09T09:24:17.624Z,219.38
2023-04-09T09:25:17.547Z,208.13
2023-04-09T09:26:17.466Z,213.75
2023-04-09T09:27:17.388Z,230.63
2023-04-09T09:28:17.305Z,270.00
2023-04-09T09:29:17.244Z,281.25
2023-04-09T09:30:17.157Z,298.13
2023-04-09T09:31:17.125Z,281.25
2023-04-09T09:32:17.000Z,264.38
2023-04-09T09:33:16.912Z,275.63
2023-04-09T09:34:16.840Z,275.63
2023-04-09T09:35:17.077Z,303.75
2023-04-09T09:36:16.674Z,348.75
2023-04-09T09:37:16.625Z,371.25
2023-04-09T09:38:16.522Z,405.00
2023-04-09T09:39:16.439Z,433.13
2023-04-09T09:40:16.361Z,455.63
2023-04-09T09:41:16.279Z,461.25
2023-04-09T09:42:16.355Z,478.13
2023-04-09T09:43:16.146Z,472.50
2023-04-09T09:44:16.044Z,461.25
2023-04-09T09:45:15.970Z,444.38
2023-04-09T09:46:15.928Z,444.38
2023-04-09T09:47:15.830Z,427.50
2023-04-09T09:48:15.753Z,376.88
2023-04-09T09:49:15.652Z,343.13
2023-04-09T09:50:15.571Z,337.50
2023-04-09T09:51:15.497Z,331.88
2023-04-09T09:52:15.464Z,337.50
2023-04-09T09:53:15.341Z,337.50
2023-04-09T09:54:15.264Z,315.00
2023-04-09T09:55:15.184Z,331.88
2023-04-09T09:56:15.108Z,343.13
2023-04-09T09:57:15.035Z,348.75
2023-04-09T09:58:14.948Z,371.25
2023-04-09T09:59:14.869Z,399.38
2023-04-09T10:00:14.799Z,438.75
2023-04-09T10:01:14.725Z,450.00
2023-04-09T10:02:14.681Z,478.13
2023-04-09T10:03:14.670Z,478.13
2023-04-09T10:04:14.496Z,483.75
2023-04-09T10:06:26.901Z,517.50
2023-04-09T10:07:26.821Z,556.88
2023-04-09T10:08:26.742Z,590.63
2023-04-09T10:09:29.502Z,596.25
2023-04-09T10:10:26.593Z,585.00
2023-04-09T10:11:26.512Z,590.63
2023-04-09T10:12:26.429Z,590.63
2023-04-09T10:13:26.399Z,556.88
2023-04-09T10:14:26.274Z,528.75
2023-04-09T10:15:26.200Z,523.13
2023-04-09T10:16:26.146Z,523.13
2023-04-09T10:17:26.056Z,534.38
2023-04-09T10:18:26.017Z,556.88
2023-04-09T10:19:25.903Z,562.50
2023-04-09T10:20:25.810Z,573.75
2023-04-09T10:21:25.725Z,607.50
2023-04-09T10:22:25.648Z,646.88
2023-04-09T10:23:25.569Z,641.25
2023-04-09T10:24:25.498Z,635.63
2023-04-09T10:25:25.415Z,618.75
2023-04-09T10:26:25.339Z,579.38
2023-04-09T10:28:37.767Z,489.38
2023-04-09T10:29:37.687Z,461.25
2023-04-09T10:30:37.605Z,444.38
2023-04-09T10:31:37.596Z,433.13
2023-04-09T10:32:37.469Z,427.50
2023-04-09T10:33:37.404Z,416.25
2023-04-09T10:34:37.295Z,399.38
2023-04-09T10:35:37.215Z,393.75
2023-04-09T10:36:37.152Z,388.13
2023-04-09T10:37:37.082Z,382.50
2023-04-09T10:38:36.989Z,388.13
2023-04-09T10:39:36.908Z,388.13
2023-04-09T10:40:36.838Z,382.50
2023-04-09T10:41:36.755Z,388.13
2023-04-09T10:42:36.680Z,393.75
2023-04-09T10:43:36.601Z,393.75
2023-04-09T10:44:36.525Z,405.00
2023-04-09T10:45:36.445Z,416.25
2023-04-09T10:46:36.478Z,421.88
2023-04-09T10:47:36.343Z,433.13
2023-04-09T10:48:36.226Z,444.38
2023-04-09T10:49:36.164Z,450.00
2023-04-09T10:50:36.059Z,444.38
2023-04-09T10:51:35.986Z,444.38
2023-04-09T10:52:35.904Z,450.00
2023-04-09T10:53:35.826Z,466.88
2023-04-09T10:54:35.760Z,483.75
2023-04-09T10:55:35.680Z,500.63
2023-04-09T10:56:35.597Z,511.88
2023-04-09T10:57:35.520Z,511.88
2023-04-09T12:06:21.073Z,950.63
2023-04-09T12:07:20.981Z,731.25
2023-04-09T12:08:20.905Z,630.00
2023-04-09T12:09:20.836Z,624.38
2023-04-09T12:10:20.758Z,3858.75
2023-04-09T12:11:21.668Z,3729.38
2023-04-09T12:13:20.540Z,922.50
2023-04-09T12:14:20.498Z,810.00
2023-04-09T12:17:20.448Z,725.63
2023-04-09T12:18:20.713Z,1029.38
2023-04-09T12:19:20.096Z,3645.00
2023-04-09T12:20:20.026Z,3740.63
2023-04-09T12:21:19.948Z,1316.25
2023-04-09T12:22:20.269Z,1845.00
2023-04-09T12:23:20.245Z,3836.25
2023-04-09T12:24:19.734Z,3898.13
2023-04-09T12:25:19.660Z,3841.88
2023-04-09T12:26:19.946Z,3853.13
2023-04-09T12:27:19.619Z,3751.88
2023-04-09T12:28:19.452Z,3774.38
2023-04-09T12:29:19.384Z,3780.00
2023-04-09T12:30:19.309Z,3819.38
2023-04-09T12:31:19.264Z,3645.00
2023-04-09T12:34:49.085Z,3830.63
2023-04-09T12:35:49.035Z,3875.63
2023-04-09T12:36:48.949Z,3498.75
2023-04-09T12:37:48.899Z,1400.63
2023-04-09T12:38:48.814Z,1400.63
2023-04-09T12:39:48.744Z,3105.00
2023-04-09T12:40:48.687Z,2025.00
2023-04-09T12:41:48.664Z,2610.00
2023-04-09T12:42:48.543Z,3870.00
2023-04-09T12:43:48.483Z,3915.00
2023-04-09T12:44:48.832Z,4078.13
2023-04-09T12:45:48.354Z,1203.75
2023-04-09T12:46:48.273Z,2553.75
2023-04-09T12:47:48.292Z,3369.38
2023-04-09T12:48:48.140Z,3864.38
2023-04-09T12:49:48.074Z,1080.00
2023-04-09T12:50:48.011Z,3712.50
2023-04-09T12:51:47.936Z,3813.75
2023-04-09T12:52:47.874Z,1181.25
2023-04-09T12:53:47.828Z,781.88
2023-04-09T12:54:48.884Z,556.88
2023-04-09T12:55:47.673Z,489.38
2023-04-09T12:56:47.607Z,461.25
2023-04-09T12:57:47.543Z,455.63
2023-04-09T12:58:47.471Z,517.50
2023-04-09T12:59:47.573Z,618.75
2023-04-09T13:00:47.329Z,691.88
2023-04-09T13:04:12.970Z,815.63
2023-04-09T13:05:12.845Z,753.75
2023-04-09T13:06:12.977Z,804.38
2023-04-09T13:07:12.714Z,669.38
2023-04-09T13:08:12.637Z,579.38
2023-04-09T13:09:12.683Z,534.38
2023-04-09T13:10:12.505Z,523.13
2023-04-09T13:11:12.420Z,517.50
2023-04-09T13:12:12.348Z,506.25
2023-04-09T13:13:12.321Z,500.63
2023-04-09T13:14:12.207Z,528.75
2023-04-09T13:15:12.135Z,568.13
2023-04-09T13:16:12.069Z,562.50
2023-04-09T13:17:12.414Z,556.88
2023-04-09T13:18:11.933Z,585.00
2023-04-09T13:19:11.844Z,585.00
2023-04-09T13:20:11.776Z,675.00
2023-04-09T13:21:11.702Z,641.25
2023-04-09T13:22:11.628Z,545.63
2023-04-09T13:23:11.545Z,556.88
2023-04-09T13:25:11.802Z,933.75
2023-04-09T13:27:11.462Z,579.38
2023-04-09T13:28:11.209Z,624.38
2023-04-09T13:29:14.940Z,871.88
2023-04-09T13:30:11.036Z,703.13
2023-04-09T13:31:10.978Z,607.50
2023-04-09T13:32:11.202Z,573.75
2023-04-09T13:33:10.860Z,523.13
2023-04-09T13:34:13.357Z,506.25
2023-04-09T13:35:10.655Z,511.88
2023-04-09T13:36:10.603Z,500.63
2023-04-09T13:37:10.937Z,517.50
2023-04-09T13:38:10.436Z,534.38
2023-04-09T13:39:10.393Z,545.63
2023-04-09T13:40:10.396Z,523.13
2023-04-09T13:41:10.233Z,489.38
2023-04-09T13:42:14.107Z,472.50
2023-04-09T13:43:10.060Z,500.63
2023-04-09T13:44:09.986Z,461.25
2023-04-09T13:45:09.912Z,444.38
2023-04-09T13:46:09.868Z,427.50
2023-04-09T13:47:09.761Z,427.50
2023-04-09T13:48:09.741Z,444.38
2023-04-09T13:49:09.611Z,461.25
2023-04-09T13:50:09.551Z,438.75
2023-04-09T13:53:09.955Z,472.50
2023-04-09T13:54:09.241Z,483.75
2023-04-09T13:55:09.169Z,928.13
2023-04-09T13:56:09.088Z,2998.13
2023-04-09T13:57:09.028Z,2970.00
2023-04-09T13:58:08.933Z,3015.00
2023-04-09T13:59:08.861Z,3015.00
2023-04-09T14:00:08.789Z,2981.25
2023-04-09T14:01:09.753Z,2953.13
2023-04-09T14:02:08.738Z,2925.00
2023-04-09T14:03:08.747Z,2896.88
2023-04-09T14:04:08.645Z,2902.50
2023-04-09T14:05:08.427Z,2896.88
2023-04-09T14:06:08.444Z,2857.50
2023-04-09T14:07:08.560Z,2896.88
2023-04-09T14:09:05.701Z,2896.88
2023-04-09T14:10:05.631Z,2880.00
2023-04-09T14:11:05.557Z,2851.88
2023-04-09T14:12:05.488Z,2863.13
2023-04-09T14:13:05.440Z,2902.50
2023-04-09T14:14:05.349Z,2970.00
2023-04-09T14:15:05.297Z,3003.75
2023-04-09T14:16:05.270Z,3076.88
2023-04-09T14:17:52.727Z,1040.63
2023-04-09T14:18:53.021Z,798.75
2023-04-09T14:19:52.518Z,1991.25
2023-04-09T14:20:52.455Z,697.50
2023-04-09T14:21:52.370Z,658.13
2023-04-09T14:22:52.309Z,646.88
2023-04-09T14:23:52.235Z,658.13
2023-04-09T14:24:52.168Z,1681.88
2023-04-09T14:25:52.104Z,2840.63
2023-04-09T14:26:52.045Z,708.75
2023-04-09T14:27:51.961Z,658.13
2023-04-09T14:28:52.406Z,725.63
2023-04-09T15:19:03.758Z,1608.75
2023-04-09T15:20:03.495Z,1580.63
2023-04-09T15:21:03.423Z,1546.88
2023-04-09T15:22:04.058Z,1586.25
2023-04-09T15:24:03.207Z,1507.50
2023-04-09T15:26:03.981Z,1456.88
2023-04-09T15:27:03.169Z,1423.13
2023-04-09T15:28:03.138Z,1468.13
2023-04-09T15:29:02.812Z,1479.38
2023-04-09T15:30:02.791Z,1473.75
2023-04-09T15:32:02.704Z,1456.88
2023-04-09T15:33:02.551Z,1451.25
2023-04-09T15:34:02.496Z,1490.63
2023-04-09T15:35:02.463Z,1507.50
2023-04-09T15:36:02.413Z,1091.25
2023-04-09T15:37:02.287Z,1175.63
2023-04-09T15:38:02.188Z,523.13
2023-04-09T15:39:02.109Z,1006.88
2023-04-09T15:40:02.137Z,1912.50
2023-04-09T15:41:02.009Z,1738.13
2023-04-09T15:42:01.941Z,1839.38
2023-04-09T15:43:01.931Z,1800.00
2023-04-09T15:44:01.768Z,1760.63
2023-04-09T15:45:01.714Z,1552.50
2023-04-09T15:46:01.683Z,1524.38
2023-04-09T15:47:01.559Z,691.88
2023-04-09T15:48:01.571Z,489.38
2023-04-09T15:49:01.625Z,703.13
2023-04-09T15:50:01.653Z,450.00
2023-04-09T15:51:01.359Z,444.38
2023-04-09T15:52:01.226Z,450.00
2023-04-09T15:53:01.142Z,410.63
2023-04-09T15:54:01.071Z,517.50
2023-04-09T15:55:01.003Z,961.88
2023-04-09T15:56:00.929Z,393.75
2023-04-09T15:57:00.856Z,371.25
2023-04-09T15:58:00.800Z,348.75
2023-04-09T15:59:01.025Z,1130.63
2023-04-09T16:00:00.658Z,956.25
2023-04-09T16:01:00.603Z,646.88
2023-04-09T16:02:00.516Z,511.88
2023-04-09T16:03:00.432Z,258.75